sensor_id;sensor_type;location;lat;lon;timestamp;P1;P2;P0
69222;PMS7003;56514;51.816;-0.026;2023-10-13T00:00:20;0.00;0.00;0.00
69222;PMS7003;56514;51.816;-0.026;2023-10-13T00:03:59;1.50;1.00;1.00
69222;PMS7003;56514;51.816;-0.026;2023-10-13T00:06:56;1.00;1.00;1.00
69222;PMS7003;56514;51.816;-0.026;2023-10-13T00:09:48;0.00;0.00;0.00
69222;PMS7003;56514;51.816;-0.026;2023-10-13T00:12:58;0.75;0.75;0.75
69222;PMS7003;56514;51.816;-0.026;2023-10-13T00:16:09;0.00;0.00;0.00
69222;PMS7003;56514;51.816;-0.026;2023-10-13T00:18:55;0.00;0.00;0.00
69222;PMS7003;56514;51.816;-0.026;2023-10-13T00:21:42;0.00;0.00;0.00
69222;PMS7003;56514;51.816;-0.026;2023-10-13T00:24:26;0.00;0.00;0.00
69222;PMS7003;56514;51.816;-0.026;2023-10-13T00:27:15;0.00;0.00;0.00
69222;PMS7003;56514;51.816;-0.026;2023-10-13T00:30:12;0.00;0.00;0.00
69222;PMS7003;56514;51.816;-0.026;2023-10-13T00:33:09;0.00;0.00;0.00
69222;PMS7003;56514;51.816;-0.026;2023-10-13T00:35:54;0.00;0.00;0.00
69222;PMS7003;56514;51.816;-0.026;2023-10-13T00:38:43;0.00;0.00;0.00
69222;PMS7003;56514;51.816;-0.026;2023-10-13T00:41:32;0.00;0.00;0.00
69222;PMS7003;56514;51.816;-0.026;2023-10-13T00:44:36;0.00;0.00;0.00
69222;PMS7003;56514;51.816;-0.026;2023-10-13T00:47:27;0.00;0.00;0.00
69222;PMS7003;56514;51.816;-0.026;2023-10-13T00:50:20;0.00;0.00;0.00
69222;PMS7003;56514;51.816;-0.026;2023-10-13T00:53:05;0.00;0.00;0.00
69222;PMS7003;56514;51.816;-0.026;2023-10-13T00:55:52;0.00;0.00;0.00
69222;PMS7003;56514;51.816;-0.026;2023-10-13T00:58:40;0.00;0.00;0.00
69222;PMS7003;56514;51.816;-0.026;2023-10-13T01:01:25;0.00;0.00;0.00
69222;PMS7003;56514;51.816;-0.026;2023-10-13T01:04:20;0.00;0.00;0.00
69222;PMS7003;56514;51.816;-0.026;2023-10-13T01:07:04;0.00;0.00;0.00
69222;PMS7003;56514;51.816;-0.026;2023-10-13T01:09:52;0.00;0.00;0.00
69222;PMS7003;56514;51.816;-0.026;2023-10-13T01:12:37;0.00;0.00;0.00
69222;PMS7003;56514;51.816;-0.026;2023-10-13T01:15:21;0.00;0.00;0.00
69222;PMS7003;56514;51.816;-0.026;2023-10-13T01:18:07;0.00;0.00;0.00
69222;PMS7003;56514;51.816;-0.026;2023-10-13T01:21:04;0.00;0.00;0.00
69222;PMS7003;56514;51.816;-0.026;2023-10-13T01:23:48;0.00;0.00;0.00
69222;PMS7003;56514;51.816;-0.026;2023-10-13T01:26:35;0.00;0.00;0.00
69222;PMS7003;56514;51.816;-0.026;2023-10-13T01:29:23;0.00;0.00;0.00
69222;PMS7003;56514;51.816;-0.026;2023-10-13T01:32:14;0.00;0.00;0.00
69222;PMS7003;56514;51.816;-0.026;2023-10-13T01:34:59;0.00;0.00;0.00
69222;PMS7003;56514;51.816;-0.026;2023-10-13T01:37:50;0.00;0.00;0.00
69222;PMS7003;56514;51.816;-0.026;2023-10-13T01:40:36;0.00;0.00;0.00
69222;PMS7003;56514;51.816;-0.026;2023-10-13T01:43:20;0.00;0.00;0.00
69222;PMS7003;56514;51.816;-0.026;2023-10-13T01:46:05;0.00;0.00;0.00
69222;PMS7003;56514;51.816;-0.026;2023-10-13T01:48:50;0.00;0.00;0.00
69222;PMS7003;56514;51.816;-0.026;2023-10-13T01:51:38;0.00;0.00;0.00
69222;PMS7003;56514;51.816;-0.026;2023-10-13T01:54:24;0.00;0.00;0.00
69222;PMS7003;56514;51.816;-0.026;2023-10-13T01:57:09;0.00;0.00;0.00
69222;PMS7003;56514;51.816;-0.026;2023-10-13T02:00:03;0.00;0.00;0.00
69222;PMS7003;56514;51.816;-0.026;2023-10-13T02:03:03;0.00;0.00;0.00
69222;PMS7003;56514;51.816;-0.026;2023-10-13T02:05:49;1.00;1.00;1.00
69222;PMS7003;56514;51.816;-0.026;2023-10-13T02:08:37;0.00;0.00;0.00
69222;PMS7003;56514;51.816;-0.026;2023-10-13T02:11:25;0.00;0.00;0.00
69222;PMS7003;56514;51.816;-0.026;2023-10-13T02:14:09;0.00;0.00;0.00
69222;PMS7003;56514;51.816;-0.026;2023-10-13T02:16:55;0.00;0.00;0.00
69222;PMS7003;56514;51.816;-0.026;2023-10-13T02:19:50;0.00;0.00;0.00
69222;PMS7003;56514;51.816;-0.026;2023-10-13T02:22:38;0.50;0.50;0.50
69222;PMS7003;56514;51.816;-0.026;2023-10-13T02:25:24;1.00;1.00;1.00
69222;PMS7003;56514;51.816;-0.026;2023-10-13T02:28:27;1.50;1.50;1.00
69222;PMS7003;56514;51.816;-0.026;2023-10-13T02:35:45;1.00;1.00;1.00
69222;PMS7003;56514;51.816;-0.026;2023-10-13T02:38:36;0.50;0.50;0.25
69222;PMS7003;56514;51.816;-0.026;2023-10-13T02:41:23;0.75;0.75;0.75
69222;PMS7003;56514;51.816;-0.026;2023-10-13T02:44:12;0.50;0.50;0.25
69222;PMS7003;56514;51.816;-0.026;2023-10-13T02:47:04;1.25;1.25;1.25
69222;PMS7003;56514;51.816;-0.026;2023-10-13T02:49:57;2.00;2.00;2.00
69222;PMS7003;56514;51.816;-0.026;2023-10-13T02:52:45;3.00;3.00;2.25
69222;PMS7003;56514;51.816;-0.026;2023-10-13T02:55:32;1.00;1.00;1.00
69222;PMS7003;56514;51.816;-0.026;2023-10-13T02:58:16;1.00;1.00;1.00
69222;PMS7003;56514;51.816;-0.026;2023-10-13T03:01:01;0.50;0.50;0.50
69222;PMS7003;56514;51.816;-0.026;2023-10-13T03:03:48;3.25;2.00;1.25
69222;PMS7003;56514;51.816;-0.026;2023-10-13T03:06:36;0.75;0.75;0.75
69222;PMS7003;56514;51.816;-0.026;2023-10-13T03:09:24;1.50;1.50;1.00
69222;PMS7003;56514;51.816;-0.026;2023-10-13T03:12:08;1.50;1.50;1.00
69222;PMS7003;56514;51.816;-0.026;2023-10-13T03:14:53;1.00;1.00;1.00
69222;PMS7003;56514;51.816;-0.026;2023-10-13T03:17:42;1.25;1.25;1.25
69222;PMS7003;56514;51.816;-0.026;2023-10-13T03:20:30;1.50;1.50;1.25
69222;PMS7003;56514;51.816;-0.026;2023-10-13T03:23:16;2.00;2.00;1.50
69222;PMS7003;56514;51.816;-0.026;2023-10-13T03:26:13;2.00;2.00;1.75
69222;PMS7003;56514;51.816;-0.026;2023-10-13T03:29:01;1.25;1.25;1.00
69222;PMS7003;56514;51.816;-0.026;2023-10-13T03:35:15;3.00;3.00;2.00
69222;PMS7003;56514;51.816;-0.026;2023-10-13T03:45:08;2.00;2.00;2.00
69222;PMS7003;56514;51.816;-0.026;2023-10-13T03:47:55;2.00;2.00;1.25
69222;PMS7003;56514;51.816;-0.026;2023-10-13T03:50:39;2.00;2.00;2.00
69222;PMS7003;56514;51.816;-0.026;2023-10-13T04:00:28;2.25;2.25;2.00
69222;PMS7003;56514;51.816;-0.026;2023-10-13T04:03:14;3.50;3.50;3.50
69222;PMS7003;56514;51.816;-0.026;2023-10-13T04:06:05;3.00;3.00;3.00
69222;PMS7003;56514;51.816;-0.026;2023-10-13T04:09:09;3.50;3.50;3.50
69222;PMS7003;56514;51.816;-0.026;2023-10-13T04:12:13;4.50;4.50;3.00
69222;PMS7003;56514;51.816;-0.026;2023-10-13T04:15:18;5.75;5.75;5.00
69222;PMS7003;56514;51.816;-0.026;2023-10-13T04:18:05;3.50;3.50;3.00
69222;PMS7003;56514;51.816;-0.026;2023-10-13T04:20:58;5.00;5.00;4.50
69222;PMS7003;56514;51.816;-0.026;2023-10-13T04:27:31;7.25;7.25;5.75
69222;PMS7003;56514;51.816;-0.026;2023-10-13T04:33:51;6.50;6.50;4.00
69222;PMS7003;56514;51.816;-0.026;2023-10-13T04:36:46;6.25;6.25;5.25
69222;PMS7003;56514;51.816;-0.026;2023-10-13T04:39:31;10.00;10.00;7.00
69222;PMS7003;56514;51.816;-0.026;2023-10-13T04:42:19;4.00;4.00;3.50
69222;PMS7003;56514;51.816;-0.026;2023-10-13T04:45:11;8.75;8.75;6.50
69222;PMS7003;56514;51.816;-0.026;2023-10-13T04:48:15;10.25;10.25;8.50
69222;PMS7003;56514;51.816;-0.026;2023-10-13T04:51:08;7.00;7.00;6.00
69222;PMS7003;56514;51.816;-0.026;2023-10-13T04:58:04;9.75;9.75;8.00
69222;PMS7003;56514;51.816;-0.026;2023-10-13T05:08:12;8.00;8.00;6.00
69222;PMS7003;56514;51.816;-0.026;2023-10-13T05:15:23;7.50;7.50;6.50
69222;PMS7003;56514;51.816;-0.026;2023-10-13T05:18:51;9.00;9.00;6.00
69222;PMS7003;56514;51.816;-0.026;2023-10-13T05:21:56;8.50;8.50;8.00
69222;PMS7003;56514;51.816;-0.026;2023-10-13T05:24:59;5.75;5.75;5.25
69222;PMS7003;56514;51.816;-0.026;2023-10-13T05:28:03;7.00;7.00;5.50
69222;PMS7003;56514;51.816;-0.026;2023-10-13T05:31:23;7.00;7.00;5.00
69222;PMS7003;56514;51.816;-0.026;2023-10-13T05:34:43;5.50;5.50;4.50
69222;PMS7003;56514;51.816;-0.026;2023-10-13T05:37:50;5.50;5.50;4.00
69222;PMS7003;56514;51.816;-0.026;2023-10-13T05:44:47;7.00;7.00;6.00
69222;PMS7003;56514;51.816;-0.026;2023-10-13T05:48:01;7.00;7.00;6.00
69222;PMS7003;56514;51.816;-0.026;2023-10-13T05:51:01;8.25;8.25;5.75
69222;PMS7003;56514;51.816;-0.026;2023-10-13T06:01:41;7.25;7.25;6.00
69222;PMS7003;56514;51.816;-0.026;2023-10-13T06:08:35;7.00;6.00;5.00
69222;PMS7003;56514;51.816;-0.026;2023-10-13T06:11:44;6.75;6.75;6.00
69222;PMS7003;56514;51.816;-0.026;2023-10-13T06:18:31;10.00;8.75;6.75
69222;PMS7003;56514;51.816;-0.026;2023-10-13T06:22:17;7.50;7.50;5.75
69222;PMS7003;56514;51.816;-0.026;2023-10-13T06:25:27;6.75;6.75;5.50
69222;PMS7003;56514;51.816;-0.026;2023-10-13T06:35:10;5.25;5.25;5.00
69222;PMS7003;56514;51.816;-0.026;2023-10-13T06:38:09;9.00;9.00;6.25
69222;PMS7003;56514;51.816;-0.026;2023-10-13T06:41:06;7.00;6.75;5.00
69222;PMS7003;56514;51.816;-0.026;2023-10-13T06:43:51;6.75;6.75;5.00
69222;PMS7003;56514;51.816;-0.026;2023-10-13T06:46:43;7.00;7.00;6.00
69222;PMS7003;56514;51.816;-0.026;2023-10-13T06:49:28;7.50;7.50;5.00
69222;PMS7003;56514;51.816;-0.026;2023-10-13T06:52:19;5.25;5.25;4.00
69222;PMS7003;56514;51.816;-0.026;2023-10-13T06:55:04;6.00;6.00;5.50
69222;PMS7003;56514;51.816;-0.026;2023-10-13T06:57:50;6.75;6.75;4.75
69222;PMS7003;56514;51.816;-0.026;2023-10-13T07:01:06;6.50;6.00;5.00
69222;PMS7003;56514;51.816;-0.026;2023-10-13T07:14:45;6.00;6.00;3.50
69222;PMS7003;56514;51.816;-0.026;2023-10-13T07:17:40;3.00;3.00;3.00
69222;PMS7003;56514;51.816;-0.026;2023-10-13T07:20:32;6.00;6.00;5.50
69222;PMS7003;56514;51.816;-0.026;2023-10-13T07:23:43;5.00;5.00;3.00
69222;PMS7003;56514;51.816;-0.026;2023-10-13T07:30:17;6.75;6.75;4.00
69222;PMS7003;56514;51.816;-0.026;2023-10-13T07:33:06;5.75;5.75;3.25
69222;PMS7003;56514;51.816;-0.026;2023-10-13T07:36:07;6.00;6.00;4.25
69222;PMS7003;56514;51.816;-0.026;2023-10-13T07:39:17;5.25;5.25;4.75
69222;PMS7003;56514;51.816;-0.026;2023-10-13T07:42:06;6.25;6.25;3.50
69222;PMS7003;56514;51.816;-0.026;2023-10-13T07:45:03;2.00;2.00;2.00
69222;PMS7003;56514;51.816;-0.026;2023-10-13T07:47:53;3.25;3.25;3.25
69222;PMS7003;56514;51.816;-0.026;2023-10-13T07:50:40;2.25;2.25;2.25
69222;PMS7003;56514;51.816;-0.026;2023-10-13T07:53:25;5.25;3.75;3.00
69222;PMS7003;56514;51.816;-0.026;2023-10-13T07:56:13;2.75;2.75;2.75
69222;PMS7003;56514;51.816;-0.026;2023-10-13T07:58:57;2.25;2.25;2.25
69222;PMS7003;56514;51.816;-0.026;2023-10-13T08:01:44;3.00;3.00;3.00
69222;PMS7003;56514;51.816;-0.026;2023-10-13T08:04:30;3.00;3.00;2.50
69222;PMS7003;56514;51.816;-0.026;2023-10-13T08:10:26;4.25;4.25;3.50
69222;PMS7003;56514;51.816;-0.026;2023-10-13T08:13:14;5.00;5.00;3.00
69222;PMS7003;56514;51.816;-0.026;2023-10-13T08:16:00;5.50;4.75;2.50
69222;PMS7003;56514;51.816;-0.026;2023-10-13T08:18:51;3.25;3.25;3.25
69222;PMS7003;56514;51.816;-0.026;2023-10-13T08:21:36;3.50;3.50;3.00
69222;PMS7003;56514;51.816;-0.026;2023-10-13T08:24:21;4.00;4.00;3.00
69222;PMS7003;56514;51.816;-0.026;2023-10-13T08:27:12;2.00;2.00;2.00
69222;PMS7003;56514;51.816;-0.026;2023-10-13T08:30:01;5.25;5.25;3.00
69222;PMS7003;56514;51.816;-0.026;2023-10-13T08:32:45;4.50;4.50;3.00
69222;PMS7003;56514;51.816;-0.026;2023-10-13T08:35:39;5.25;5.25;2.75
69222;PMS7003;56514;51.816;-0.026;2023-10-13T08:38:38;10.75;9.00;6.00
69222;PMS7003;56514;51.816;-0.026;2023-10-13T08:41:35;7.75;7.75;6.25
69222;PMS7003;56514;51.816;-0.026;2023-10-13T08:44:44;7.75;7.75;6.25
69222;PMS7003;56514;51.816;-0.026;2023-10-13T08:47:29;11.25;10.50;7.75
69222;PMS7003;56514;51.816;-0.026;2023-10-13T08:50:21;7.75;7.75;7.00
69222;PMS7003;56514;51.816;-0.026;2023-10-13T08:53:28;7.75;7.75;5.75
69222;PMS7003;56514;51.816;-0.026;2023-10-13T08:56:15;6.75;6.75;6.00
69222;PMS7003;56514;51.816;-0.026;2023-10-13T08:59:19;9.00;9.00;6.50
69222;PMS7003;56514;51.816;-0.026;2023-10-13T09:02:23;8.25;8.25;7.25
69222;PMS7003;56514;51.816;-0.026;2023-10-13T09:05:28;7.75;7.75;7.25
69222;PMS7003;56514;51.816;-0.026;2023-10-13T09:08:44;8.75;8.75;7.00
69222;PMS7003;56514;51.816;-0.026;2023-10-13T09:11:49;8.00;8.00;7.50
69222;PMS7003;56514;51.816;-0.026;2023-10-13T09:14:36;7.75;7.75;6.75
69222;PMS7003;56514;51.816;-0.026;2023-10-13T09:17:31;7.25;7.25;6.50
69222;PMS7003;56514;51.816;-0.026;2023-10-13T09:20:27;11.25;11.25;7.75
69222;PMS7003;56514;51.816;-0.026;2023-10-13T09:23:24;9.25;9.25;6.25
69222;PMS7003;56514;51.816;-0.026;2023-10-13T09:26:09;8.00;8.00;7.00
69222;PMS7003;56514;51.816;-0.026;2023-10-13T09:28:54;5.25;5.25;3.50
69222;PMS7003;56514;51.816;-0.026;2023-10-13T09:31:38;9.00;9.00;6.75
69222;PMS7003;56514;51.816;-0.026;2023-10-13T09:34:23;11.50;11.00;6.00
69222;PMS7003;56514;51.816;-0.026;2023-10-13T09:37:13;8.00;8.00;7.00
69222;PMS7003;56514;51.816;-0.026;2023-10-13T09:40:05;8.25;8.25;6.75
69222;PMS7003;56514;51.816;-0.026;2023-10-13T09:43:09;6.00;6.00;5.25
69222;PMS7003;56514;51.816;-0.026;2023-10-13T09:45:59;6.00;6.00;5.75
69222;PMS7003;56514;51.816;-0.026;2023-10-13T09:48:51;7.00;7.00;6.50
69222;PMS7003;56514;51.816;-0.026;2023-10-13T09:52:00;4.50;4.50;3.00
69222;PMS7003;56514;51.816;-0.026;2023-10-13T09:57:45;7.00;7.00;6.00
69222;PMS7003;56514;51.816;-0.026;2023-10-13T10:00:33;6.25;6.25;5.00
69222;PMS7003;56514;51.816;-0.026;2023-10-13T10:03:30;5.00;5.00;4.00
69222;PMS7003;56514;51.816;-0.026;2023-10-13T10:06:24;5.75;5.75;5.00
69222;PMS7003;56514;51.816;-0.026;2023-10-13T10:09:12;7.25;7.25;6.00
69222;PMS7003;56514;51.816;-0.026;2023-10-13T10:12:01;5.00;5.00;3.00
69222;PMS7003;56514;51.816;-0.026;2023-10-13T10:18:05;7.25;7.25;6.25
69222;PMS7003;56514;51.816;-0.026;2023-10-13T10:20:49;5.00;5.00;5.00
69222;PMS7003;56514;51.816;-0.026;2023-10-13T10:23:39;4.50;4.50;3.00
69222;PMS7003;56514;51.816;-0.026;2023-10-13T10:26:24;3.00;3.00;3.00
69222;PMS7003;56514;51.816;-0.026;2023-10-13T10:29:14;5.50;5.50;5.00
69222;PMS7003;56514;51.816;-0.026;2023-10-13T10:32:12;5.00;5.00;4.00
69222;PMS7003;56514;51.816;-0.026;2023-10-13T10:38:27;6.75;5.25;5.00
69222;PMS7003;56514;51.816;-0.026;2023-10-13T10:41:14;5.00;5.00;3.00
69222;PMS7003;56514;51.816;-0.026;2023-10-13T10:44:02;5.50;5.50;5.00
69222;PMS7003;56514;51.816;-0.026;2023-10-13T10:46:53;6.00;6.00;5.25
69222;PMS7003;56514;51.816;-0.026;2023-10-13T10:49:45;5.50;5.25;3.50
69222;PMS7003;56514;51.816;-0.026;2023-10-13T10:52:32;6.75;6.75;5.00
69222;PMS7003;56514;51.816;-0.026;2023-10-13T10:55:49;5.00;5.00;4.00
69222;PMS7003;56514;51.816;-0.026;2023-10-13T10:59:34;4.50;4.00;3.25
69222;PMS7003;56514;51.816;-0.026;2023-10-13T11:02:29;3.25;3.25;2.25
69222;PMS7003;56514;51.816;-0.026;2023-10-13T11:05:15;2.75;2.75;2.50
69222;PMS7003;56514;51.816;-0.026;2023-10-13T11:08:04;6.25;6.25;6.00
69222;PMS7003;56514;51.816;-0.026;2023-10-13T11:10:54;3.75;3.75;3.75
69222;PMS7003;56514;51.816;-0.026;2023-10-13T11:13:42;5.50;5.50;3.75
69222;PMS7003;56514;51.816;-0.026;2023-10-13T11:16:36;4.00;4.00;3.50
69222;PMS7003;56514;51.816;-0.026;2023-10-13T11:19:33;4.00;4.00;3.25
69222;PMS7003;56514;51.816;-0.026;2023-10-13T11:22:20;3.50;3.50;3.50
69222;PMS7003;56514;51.816;-0.026;2023-10-13T11:25:29;5.00;5.00;4.50
69222;PMS7003;56514;51.816;-0.026;2023-10-13T11:28:14;4.00;4.00;4.00
69222;PMS7003;56514;51.816;-0.026;2023-10-13T11:31:02;2.75;2.75;2.75
69222;PMS7003;56514;51.816;-0.026;2023-10-13T11:33:57;3.00;3.00;3.00
69222;PMS7003;56514;51.816;-0.026;2023-10-13T11:40:47;3.00;3.00;3.00
69222;PMS7003;56514;51.816;-0.026;2023-10-13T11:43:51;3.00;3.00;2.25
69222;PMS7003;56514;51.816;-0.026;2023-10-13T11:46:36;2.00;2.00;2.00
69222;PMS7003;56514;51.816;-0.026;2023-10-13T11:49:20;1.00;1.00;1.00
69222;PMS7003;56514;51.816;-0.026;2023-10-13T11:52:11;3.00;3.00;3.00
69222;PMS7003;56514;51.816;-0.026;2023-10-13T11:55:02;3.25;3.25;3.00
69222;PMS7003;56514;51.816;-0.026;2023-10-13T11:57:47;1.80;1.80;1.80
69222;PMS7003;56514;51.816;-0.026;2023-10-13T12:00:34;2.75;2.75;2.75
69222;PMS7003;56514;51.816;-0.026;2023-10-13T12:03:37;2.00;2.00;2.00
69222;PMS7003;56514;51.816;-0.026;2023-10-13T12:06:41;3.20;3.00;2.00
69222;PMS7003;56514;51.816;-0.026;2023-10-13T12:09:29;3.50;2.75;2.00
69222;PMS7003;56514;51.816;-0.026;2023-10-13T12:12:26;2.75;2.75;2.00
69222;PMS7003;56514;51.816;-0.026;2023-10-13T12:15:11;2.00;2.00;2.00
69222;PMS7003;56514;51.816;-0.026;2023-10-13T12:18:10;2.00;2.00;2.00
69222;PMS7003;56514;51.816;-0.026;2023-10-13T12:20:59;2.00;2.00;2.00
69222;PMS7003;56514;51.816;-0.026;2023-10-13T12:23:51;1.00;1.00;1.00
69222;PMS7003;56514;51.816;-0.026;2023-10-13T12:26:38;2.00;2.00;1.40
69222;PMS7003;56514;51.816;-0.026;2023-10-13T12:29:26;3.50;3.50;3.00
69222;PMS7003;56514;51.816;-0.026;2023-10-13T12:32:14;2.00;2.00;2.00
69222;PMS7003;56514;51.816;-0.026;2023-10-13T12:35:04;2.00;2.00;2.00
69222;PMS7003;56514;51.816;-0.026;2023-10-13T12:37:49;3.50;3.50;3.00
69222;PMS7003;56514;51.816;-0.026;2023-10-13T12:40:36;2.75;2.75;2.50
69222;PMS7003;56514;51.816;-0.026;2023-10-13T12:43:39;2.00;2.00;1.00
69222;PMS7003;56514;51.816;-0.026;2023-10-13T12:46:43;2.50;2.50;2.50
69222;PMS7003;56514;51.816;-0.026;2023-10-13T12:49:46;2.75;2.75;2.25
69222;PMS7003;56514;51.816;-0.026;2023-10-13T12:52:37;2.75;2.75;2.25
69222;PMS7003;56514;51.816;-0.026;2023-10-13T12:55:21;3.00;3.00;3.00
69222;PMS7003;56514;51.816;-0.026;2023-10-13T12:58:09;2.00;2.00;2.00
69222;PMS7003;56514;51.816;-0.026;2023-10-13T13:00:53;2.20;2.20;2.00
69222;PMS7003;56514;51.816;-0.026;2023-10-13T13:03:51;2.40;2.40;2.00
69222;PMS7003;56514;51.816;-0.026;2023-10-13T13:06:40;2.00;2.00;2.00
69222;PMS7003;56514;51.816;-0.026;2023-10-13T13:09:24;3.00;3.00;2.50
69222;PMS7003;56514;51.816;-0.026;2023-10-13T13:12:12;1.80;1.80;1.60
69222;PMS7003;56514;51.816;-0.026;2023-10-13T13:14:57;2.40;2.40;2.00
69222;PMS7003;56514;51.816;-0.026;2023-10-13T13:17:41;1.50;1.50;1.50
69222;PMS7003;56514;51.816;-0.026;2023-10-13T13:20:26;1.75;1.75;1.75
69222;PMS7003;56514;51.816;-0.026;2023-10-13T13:23:12;2.00;2.00;1.80
69222;PMS7003;56514;51.816;-0.026;2023-10-13T13:25:57;1.40;1.40;1.00
69222;PMS7003;56514;51.816;-0.026;2023-10-13T13:28:41;2.00;2.00;1.75
69222;PMS7003;56514;51.816;-0.026;2023-10-13T13:34:31;1.00;1.00;1.00
69222;PMS7003;56514;51.816;-0.026;2023-10-13T13:37:15;1.20;1.20;1.00
69222;PMS7003;56514;51.816;-0.026;2023-10-13T13:40:03;1.00;1.00;1.00
69222;PMS7003;56514;51.816;-0.026;2023-10-13T13:42:58;1.00;1.00;0.80
69222;PMS7003;56514;51.816;-0.026;2023-10-13T13:45:45;0.00;0.00;0.00
69222;PMS7003;56514;51.816;-0.026;2023-10-13T13:48:30;0.75;0.75;0.75
69222;PMS7003;56514;51.816;-0.026;2023-10-13T13:51:16;0.75;0.75;0.75
69222;PMS7003;56514;51.816;-0.026;2023-10-13T13:54:04;0.60;0.60;0.00
69222;PMS7003;56514;51.816;-0.026;2023-10-13T13:56:51;0.00;0.00;0.00
69222;PMS7003;56514;51.816;-0.026;2023-10-13T13:59:37;0.00;0.00;0.00
69222;PMS7003;56514;51.816;-0.026;2023-10-13T14:02:21;0.00;0.00;0.00
69222;PMS7003;56514;51.816;-0.026;2023-10-13T14:05:06;0.00;0.00;0.00
69222;PMS7003;56514;51.816;-0.026;2023-10-13T14:07:55;0.00;0.00;0.00
69222;PMS7003;56514;51.816;-0.026;2023-10-13T14:10:39;0.00;0.00;0.00
69222;PMS7003;56514;51.816;-0.026;2023-10-13T14:13:43;0.00;0.00;0.00
69222;PMS7003;56514;51.816;-0.026;2023-10-13T14:16:40;0.00;0.00;0.00
69222;PMS7003;56514;51.816;-0.026;2023-10-13T14:19:32;0.00;0.00;0.00
69222;PMS7003;56514;51.816;-0.026;2023-10-13T14:22:16;0.00;0.00;0.00
69222;PMS7003;56514;51.816;-0.026;2023-10-13T14:25:01;0.00;0.00;0.00
69222;PMS7003;56514;51.816;-0.026;2023-10-13T14:27:53;0.00;0.00;0.00
69222;PMS7003;56514;51.816;-0.026;2023-10-13T14:30:37;0.00;0.00;0.00
69222;PMS7003;56514;51.816;-0.026;2023-10-13T14:33:22;0.00;0.00;0.00
69222;PMS7003;56514;51.816;-0.026;2023-10-13T14:36:10;0.00;0.00;0.00
69222;PMS7003;56514;51.816;-0.026;2023-10-13T14:38:55;0.00;0.00;0.00
69222;PMS7003;56514;51.816;-0.026;2023-10-13T14:41:40;0.00;0.00;0.00
69222;PMS7003;56514;51.816;-0.026;2023-10-13T14:44:42;1.00;0.00;0.00
69222;PMS7003;56514;51.816;-0.026;2023-10-13T14:47:26;0.00;0.00;0.00
69222;PMS7003;56514;51.816;-0.026;2023-10-13T14:50:11;0.00;0.00;0.00
69222;PMS7003;56514;51.816;-0.026;2023-10-13T14:53:03;0.00;0.00;0.00
69222;PMS7003;56514;51.816;-0.026;2023-10-13T14:55:48;0.00;0.00;0.00
69222;PMS7003;56514;51.816;-0.026;2023-10-13T14:58:32;0.00;0.00;0.00
69222;PMS7003;56514;51.816;-0.026;2023-10-13T15:01:18;0.00;0.00;0.00
69222;PMS7003;56514;51.816;-0.026;2023-10-13T15:04:02;0.00;0.00;0.00
69222;PMS7003;56514;51.816;-0.026;2023-10-13T15:06:49;0.00;0.00;0.00
69222;PMS7003;56514;51.816;-0.026;2023-10-13T15:09:38;0.00;0.00;0.00
69222;PMS7003;56514;51.816;-0.026;2023-10-13T15:12:27;0.00;0.00;0.00
69222;PMS7003;56514;51.816;-0.026;2023-10-13T15:15:12;0.00;0.00;0.00
69222;PMS7003;56514;51.816;-0.026;2023-10-13T15:18:00;0.00;0.00;0.00
69222;PMS7003;56514;51.816;-0.026;2023-10-13T15:20:45;0.00;0.00;0.00
69222;PMS7003;56514;51.816;-0.026;2023-10-13T15:23:30;0.00;0.00;0.00
69222;PMS7003;56514;51.816;-0.026;2023-10-13T15:26:15;0.00;0.00;0.00
69222;PMS7003;56514;51.816;-0.026;2023-10-13T15:29:00;0.00;0.00;0.00
69222;PMS7003;56514;51.816;-0.026;2023-10-13T15:31:45;0.00;0.00;0.00
69222;PMS7003;56514;51.816;-0.026;2023-10-13T15:34:45;0.00;0.00;0.00
69222;PMS7003;56514;51.816;-0.026;2023-10-13T15:37:30;0.00;0.00;0.00
69222;PMS7003;56514;51.816;-0.026;2023-10-13T15:40:15;0.00;0.00;0.00
69222;PMS7003;56514;51.816;-0.026;2023-10-13T15:43:00;0.00;0.00;0.00
69222;PMS7003;56514;51.816;-0.026;2023-10-13T15:45:44;1.60;0.00;0.00
69222;PMS7003;56514;51.816;-0.026;2023-10-13T15:48:30;0.00;0.00;0.00
69222;PMS7003;56514;51.816;-0.026;2023-10-13T15:51:18;0.00;0.00;0.00
69222;PMS7003;56514;51.816;-0.026;2023-10-13T15:54:03;0.00;0.00;0.00
69222;PMS7003;56514;51.816;-0.026;2023-10-13T15:56:48;0.00;0.00;0.00
69222;PMS7003;56514;51.816;-0.026;2023-10-13T15:59:35;0.00;0.00;0.00
69222;PMS7003;56514;51.816;-0.026;2023-10-13T16:05:54;0.00;0.00;0.00
69222;PMS7003;56514;51.816;-0.026;2023-10-13T16:08:39;0.00;0.00;0.00
69222;PMS7003;56514;51.816;-0.026;2023-10-13T16:11:27;0.00;0.00;0.00
69222;PMS7003;56514;51.816;-0.026;2023-10-13T16:14:12;0.00;0.00;0.00
69222;PMS7003;56514;51.816;-0.026;2023-10-13T16:17:01;0.00;0.00;0.00
69222;PMS7003;56514;51.816;-0.026;2023-10-13T16:19:46;0.00;0.00;0.00
69222;PMS7003;56514;51.816;-0.026;2023-10-13T16:22:32;0.00;0.00;0.00
69222;PMS7003;56514;51.816;-0.026;2023-10-13T16:25:17;0.00;0.00;0.00
69222;PMS7003;56514;51.816;-0.026;2023-10-13T16:28:02;0.00;0.00;0.00
69222;PMS7003;56514;51.816;-0.026;2023-10-13T16:30:46;0.00;0.00;0.00
69222;PMS7003;56514;51.816;-0.026;2023-10-13T16:33:31;0.00;0.00;0.00
69222;PMS7003;56514;51.816;-0.026;2023-10-13T16:36:16;0.00;0.00;0.00
69222;PMS7003;56514;51.816;-0.026;2023-10-13T16:39:29;0.00;0.00;0.00
69222;PMS7003;56514;51.816;-0.026;2023-10-13T16:42:14;0.00;0.00;0.00
69222;PMS7003;56514;51.816;-0.026;2023-10-13T16:49:09;0.00;0.00;0.00
69222;PMS7003;56514;51.816;-0.026;2023-10-13T16:51:55;0.00;0.00;0.00
69222;PMS7003;56514;51.816;-0.026;2023-10-13T17:01:45;0.00;0.00;0.00
69222;PMS7003;56514;51.816;-0.026;2023-10-13T17:04:33;1.00;0.00;0.00
69222;PMS7003;56514;51.816;-0.026;2023-10-13T17:07:24;0.00;0.00;0.00
69222;PMS7003;56514;51.816;-0.026;2023-10-13T17:10:37;0.00;0.00;0.00
69222;PMS7003;56514;51.816;-0.026;2023-10-13T17:14:01;0.00;0.00;0.00
69222;PMS7003;56514;51.816;-0.026;2023-10-13T17:17:00;0.00;0.00;0.00
69222;PMS7003;56514;51.816;-0.026;2023-10-13T17:23:49;0.00;0.00;0.00
69222;PMS7003;56514;51.816;-0.026;2023-10-13T17:34:03;0.00;0.00;0.00
69222;PMS7003;56514;51.816;-0.026;2023-10-13T17:37:20;0.00;0.00;0.00
69222;PMS7003;56514;51.816;-0.026;2023-10-13T17:40:04;0.00;0.00;0.00
69222;PMS7003;56514;51.816;-0.026;2023-10-13T17:46:13;0.00;0.00;0.00
69222;PMS7003;56514;51.816;-0.026;2023-10-13T17:48:58;0.00;0.00;0.00
69222;PMS7003;56514;51.816;-0.026;2023-10-13T17:51:43;0.00;0.00;0.00
69222;PMS7003;56514;51.816;-0.026;2023-10-13T17:54:27;0.00;0.00;0.00
69222;PMS7003;56514;51.816;-0.026;2023-10-13T17:57:19;0.00;0.00;0.00
69222;PMS7003;56514;51.816;-0.026;2023-10-13T18:00:03;0.00;0.00;0.00
69222;PMS7003;56514;51.816;-0.026;2023-10-13T18:02:54;0.00;0.00;0.00
69222;PMS7003;56514;51.816;-0.026;2023-10-13T18:05:39;0.00;0.00;0.00
69222;PMS7003;56514;51.816;-0.026;2023-10-13T18:08:24;0.00;0.00;0.00
69222;PMS7003;56514;51.816;-0.026;2023-10-13T18:11:11;0.00;0.00;0.00
69222;PMS7003;56514;51.816;-0.026;2023-10-13T18:13:59;0.00;0.00;0.00
69222;PMS7003;56514;51.816;-0.026;2023-10-13T18:16:44;0.00;0.00;0.00
69222;PMS7003;56514;51.816;-0.026;2023-10-13T18:19:30;0.00;0.00;0.00
69222;PMS7003;56514;51.816;-0.026;2023-10-13T18:22:14;0.00;0.00;0.00
69222;PMS7003;56514;51.816;-0.026;2023-10-13T18:25:03;0.00;0.00;0.00
69222;PMS7003;56514;51.816;-0.026;2023-10-13T18:27:49;0.00;0.00;0.00
69222;PMS7003;56514;51.816;-0.026;2023-10-13T18:30:34;0.00;0.00;0.00
69222;PMS7003;56514;51.816;-0.026;2023-10-13T18:33:20;0.00;0.00;0.00
69222;PMS7003;56514;51.816;-0.026;2023-10-13T19:01:26;0.00;0.00;0.00
69222;PMS7003;56514;51.816;-0.026;2023-10-13T19:04:15;0.00;0.00;0.00
69222;PMS7003;56514;51.816;-0.026;2023-10-13T19:14:24;0.00;0.00;0.00